createdAt,value
2023-04-19T00:01:55.503Z,6
2023-04-19T00:06:56.376Z,6.0625
2023-04-19T00:11:57.444Z,6.1875
2023-04-19T00:16:58.473Z,6.3125
2023-04-19T00:21:59.293Z,6.4375
2023-04-19T00:27:00.349Z,6.5
2023-04-19T00:32:01.279Z,6.5625
2023-04-19T00:37:02.439Z,6.5625
2023-04-19T00:42:03.467Z,6.5
2023-04-19T00:47:04.422Z,6.4375
2023-04-19T00:52:05.415Z,6.3125
2023-04-19T00:57:06.490Z,6.3125
2023-04-19T01:02:07.524Z,6.25
2023-04-19T01:07:08.547Z,6.25
2023-04-19T01:12:09.546Z,6.125
2023-04-19T01:17:10.571Z,6
2023-04-19T01:22:11.547Z,5.9375
2023-04-19T01:27:12.547Z,5.8125
2023-04-19T01:32:13.438Z,5.6875
2023-04-19T01:37:14.511Z,5.5625
2023-04-19T01:42:15.317Z,5.5
2023-04-19T01:47:16.344Z,5.375
2023-04-19T01:52:17.261Z,5.3125
2023-04-19T01:57:18.207Z,5.3125
2023-04-19T02:02:19.093Z,5.125
2023-04-19T02:07:19.980Z,5.1875
2023-04-19T02:12:20.678Z,5.0625
2023-04-19T02:17:21.745Z,5.0625
2023-04-19T02:22:22.455Z,4.9375
2023-04-19T02:27:23.617Z,4.875
2023-04-19T02:32:24.494Z,4.8125
2023-04-19T02:37:25.390Z,4.75
2023-04-19T02:42:26.408Z,4.6875
2023-04-19T02:47:27.254Z,4.6875
2023-04-19T02:52:28.181Z,4.5625
2023-04-19T02:57:29.114Z,4.5
2023-04-19T03:02:29.950Z,4.4375
2023-04-19T03:07:30.990Z,4.375
2023-04-19T03:12:32.100Z,4.1875
2023-04-19T03:17:32.976Z,4.0625
2023-04-19T03:22:34.155Z,3.8125
2023-04-19T03:27:35.294Z,3.75
2023-04-19T03:32:36.307Z,3.6875
2023-04-19T03:37:37.201Z,3.5625
2023-04-19T03:42:38.233Z,3.5625
2023-04-19T03:47:39.129Z,3.5625
2023-04-19T03:52:39.980Z,3.6875
2023-04-19T03:57:40.983Z,3.625
2023-04-19T04:02:42.097Z,3.5625
2023-04-19T04:07:43.754Z,3.5
2023-04-19T04:12:43.974Z,3.5625
2023-04-19T04:17:45.211Z,3.5
2023-04-19T04:22:46.054Z,3.4375
2023-04-19T04:27:46.956Z,3.3125
2023-04-19T04:32:48.047Z,3.5
2023-04-19T04:37:49.101Z,3.4375
2023-04-19T04:42:50.415Z,3.5
2023-04-19T04:47:51.391Z,3.5625
2023-04-19T04:52:52.304Z,3.5
2023-04-19T04:57:53.309Z,3.5625
2023-04-19T05:02:54.195Z,3.6875
2023-04-19T05:07:55.520Z,3.8125
2023-04-19T05:12:55.952Z,3.9375
2023-04-19T05:17:56.993Z,4
2023-04-19T05:22:57.910Z,4.125
2023-04-19T05:27:58.999Z,4.25
2023-04-19T05:32:59.977Z,4.375
2023-04-19T05:38:00.790Z,4.4375
2023-04-19T05:43:01.937Z,4.5625
2023-04-19T05:48:03.170Z,4.6875
2023-04-19T05:53:03.815Z,4.8125
2023-04-19T05:58:04.677Z,4.875
2023-04-19T06:03:05.783Z,5
2023-04-19T06:08:06.773Z,5.1875
2023-04-19T06:13:07.737Z,5.25
2023-04-19T06:18:08.871Z,5.375
2023-04-19T06:23:09.690Z,5.5
2023-04-19T06:28:10.514Z,5.6875
2023-04-19T06:33:11.563Z,5.875
2023-04-19T06:38:12.446Z,6.0625
2023-04-19T06:43:13.633Z,6.1875
2023-04-19T06:48:14.484Z,6.5625
2023-04-19T06:53:15.448Z,8.0625
2023-04-19T06:58:16.324Z,9.3125
2023-04-19T07:03:17.490Z,10.375
2023-04-19T07:08:18.328Z,11.4375
2023-04-19T07:13:19.286Z,12.5
2023-04-19T07:18:20.360Z,12.9375
2023-04-19T07:23:21.259Z,13.3125
2023-04-19T07:28:22.238Z,13.25
2023-04-19T07:33:24.638Z,13.375
2023-04-19T07:38:24.129Z,12.875
2023-04-19T07:43:25.365Z,12.625
2023-04-19T07:48:26.235Z,13.4375
2023-04-19T07:53:27.195Z,12.6875
2023-04-19T07:58:28.067Z,12.9375
2023-04-19T08:03:29.554Z,12.875
2023-04-19T08:08:30.198Z,12.9375
2023-04-19T08:13:31.101Z,12.75
2023-04-19T08:18:32.302Z,12.9375
2023-04-19T08:23:41.512Z,12.6875
2023-04-19T08:28:34.054Z,12.9375
2023-04-19T08:33:34.923Z,13.375
2023-04-19T08:38:35.851Z,13.0625
2023-04-19T08:43:36.597Z,13
2023-04-19T08:48:37.661Z,12.75
2023-04-19T08:53:38.608Z,11.8125
2023-04-19T09:03:51.445Z,11.5625
2023-04-19T09:08:41.718Z,12
2023-04-19T09:13:42.800Z,11.875
2023-04-19T09:18:53.426Z,11.6875
2023-04-19T09:23:44.594Z,11.5
2023-04-19T09:28:45.411Z,11.4375
2023-04-19T09:33:46.396Z,11.375
2023-04-19T09:38:47.393Z,11.8125
2023-04-19T09:48:49.147Z,11.5
2023-04-19T09:53:50.170Z,11.625
2023-04-19T09:58:56.504Z,11.5
2023-04-19T10:03:52.913Z,11.3125
2023-04-19T10:08:53.213Z,11.375
2023-04-19T10:13:54.064Z,11.375
2023-04-19T10:18:54.968Z,11.625
2023-04-19T10:23:55.754Z,12
2023-04-19T10:28:56.591Z,12.3125
2023-04-19T10:33:57.567Z,12
2023-04-19T10:38:58.510Z,11.625
2023-04-19T10:43:59.526Z,11.75
2023-04-19T10:49:00.508Z,11.75
2023-04-19T10:54:01.436Z,11.75
2023-04-19T10:59:02.648Z,11.8125
2023-04-19T11:04:03.610Z,12.1875
2023-04-19T11:09:05.781Z,12.4375
2023-04-19T11:14:05.790Z,12.75
2023-04-19T11:19:06.711Z,12.6875
2023-04-19T11:24:07.728Z,12.5
2023-04-19T11:29:08.639Z,12.375
2023-04-19T11:34:09.531Z,12.5
2023-04-19T11:39:10.643Z,12.4375
2023-04-19T11:44:11.470Z,12.6875
2023-04-19T11:49:12.330Z,12.875
2023-04-19T11:54:13.273Z,13
2023-04-19T11:59:14.028Z,12.625
2023-04-19T12:04:15.732Z,12.75
2023-04-19T12:09:16.602Z,12.8125
2023-04-19T12:14:17.800Z,12.75
2023-04-19T12:19:18.821Z,12.8125
2023-04-19T12:24:19.680Z,13.125
2023-04-19T12:29:20.534Z,13.125
2023-04-19T12:34:21.348Z,13.0625
2023-04-19T12:39:22.400Z,12.625
2023-04-19T12:44:23.214Z,12.9375
2023-04-19T12:49:24.197Z,13
2023-04-19T12:54:25.202Z,12.5625
2023-04-19T12:59:26.006Z,12.3125
2023-04-19T13:04:27.185Z,12.25
2023-04-19T13:09:28.117Z,12.1875
2023-04-19T13:14:29.150Z,12.75
2023-04-19T13:19:29.945Z,12.8125
2023-04-19T13:24:30.883Z,12.875
2023-04-19T13:29:31.882Z,13.1875
2023-04-19T13:34:32.817Z,13.5625
2023-04-19T13:39:33.716Z,13.375
2023-04-19T13:44:34.588Z,13.375
2023-04-19T13:49:35.440Z,13.0625
2023-04-19T13:54:36.445Z,13.125
2023-04-19T13:59:37.564Z,12.8125
2023-04-19T14:04:38.721Z,12.4375
2023-04-19T14:09:39.736Z,12.25
2023-04-19T14:14:40.675Z,12.0625
2023-04-19T14:19:41.803Z,12.0625
2023-04-19T14:24:42.835Z,12.4375
2023-04-19T14:29:43.929Z,12.1875
2023-04-19T14:34:44.720Z,12.3125
2023-04-19T14:39:45.626Z,12
2023-04-19T14:44:46.263Z,11.5625
2023-04-19T14:49:47.217Z,11.375
2023-04-19T14:54:48.302Z,11.375
2023-04-19T14:59:49.220Z,11.125
2023-04-19T15:04:50.479Z,11.0625
2023-04-19T15:09:51.381Z,10.6875
2023-04-19T15:14:52.291Z,9.8125
2023-04-19T15:19:53.320Z,9.5625
2023-04-19T15:24:54.504Z,9.125
2023-04-19T15:29:55.312Z,8
2023-04-19T15:34:56.321Z,6.8125
2023-04-19T15:39:57.280Z,5.8125
2023-04-19T15:44:58.062Z,5.6875
2023-04-19T15:49:59.036Z,5.5625
2023-04-19T15:55:00.137Z,5.5
2023-04-19T16:00:00.950Z,5.3125
2023-04-19T16:05:02.127Z,5.3125
2023-04-19T16:10:02.888Z,5.4375
2023-04-19T16:15:03.687Z,5.375
2023-04-19T16:20:04.625Z,5.375
2023-04-19T16:25:05.737Z,5.375
2023-04-19T16:30:06.503Z,5.375
2023-04-19T16:35:07.459Z,5.5
2023-04-19T16:40:08.425Z,5.5
2023-04-19T16:45:09.328Z,5.5625
2023-04-19T16:50:10.129Z,5.625
2023-04-19T16:55:11.247Z,5.625
2023-04-19T17:00:12.305Z,5.625
2023-04-19T17:05:13.738Z,5.625
2023-04-19T17:10:14.630Z,5.6875
2023-04-19T17:15:15.786Z,5.625
2023-04-19T17:20:16.717Z,5.5625
2023-04-19T17:25:17.732Z,5.5625
2023-04-19T17:30:18.441Z,5.5
2023-04-19T17:35:19.437Z,5.5
2023-04-19T17:40:20.470Z,5.5
2023-04-19T17:45:21.328Z,5.5
2023-04-19T17:50:22.080Z,5.5
2023-04-19T17:55:22.969Z,5.4375
2023-04-19T18:00:23.791Z,5.5
2023-04-19T18:05:24.841Z,5.5
2023-04-19T18:10:26.196Z,5.4375
2023-04-19T18:15:26.795Z,5.375
2023-04-19T18:20:27.750Z,5.3125
2023-04-19T18:25:28.595Z,5.375
2023-04-19T18:30:29.488Z,5.4375
2023-04-19T18:35:30.358Z,5.5625
2023-04-19T18:40:31.271Z,5.5625
2023-04-19T18:45:33.242Z,5.625
2023-04-19T18:50:34.020Z,5.6875
2023-04-19T18:55:34.067Z,5.6875
2023-04-19T19:00:35.003Z,5.75
2023-04-19T19:05:36.210Z,5.8125
2023-04-19T19:11:07.013Z,5.875
2023-04-19T19:15:38.104Z,5.875
2023-04-19T19:20:39.058Z,6
2023-04-19T19:25:39.975Z,6.0625
2023-04-19T19:30:41.030Z,6.0625
2023-04-19T19:35:41.989Z,6.0625
2023-04-19T19:41:07.905Z,6.125
2023-04-19T19:45:43.771Z,6.125
2023-04-19T19:51:01.869Z,6.1875
2023-04-19T19:55:45.616Z,6.1875
2023-04-19T20:00:49.680Z,6.1875
2023-04-19T20:05:47.944Z,6.25
2023-04-19T20:10:49.242Z,6.25
2023-04-19T20:15:50.019Z,6.25
2023-04-19T20:20:51.041Z,6.25
2023-04-19T20:25:52.137Z,6.25
2023-04-19T20:30:53.097Z,6.25
2023-04-19T20:35:54.001Z,6.3125
2023-04-19T20:40:55.105Z,6.375
2023-04-19T20:45:56.033Z,6.3125
2023-04-19T20:50:56.747Z,6.3125
2023-04-19T20:55:57.687Z,6.375
2023-04-19T21:00:58.792Z,6.375
2023-04-19T21:05:59.709Z,6.3125
2023-04-19T21:11:02.564Z,6.375
2023-04-19T21:16:01.746Z,6.375
2023-04-19T21:21:03.818Z,6.4375
2023-04-19T21:26:04.136Z,6.375
2023-04-19T21:31:04.994Z,6.375
2023-04-19T21:36:05.886Z,6.375
2023-04-19T21:41:07.149Z,6.3125
2023-04-19T21:46:07.794Z,6.3125
2023-04-19T21:51:08.733Z,6.3125
2023-04-19T21:56:09.564Z,6.375
2023-04-19T22:01:10.409Z,6.3125
2023-04-19T22:06:11.301Z,6.3125
2023-04-19T22:11:13.223Z,6.375
2023-04-19T22:16:13.240Z,6.375
2023-04-19T22:21:14.024Z,6.4375
2023-04-19T22:26:15.228Z,6.4375
2023-04-19T22:31:16.261Z,6.4375
2023-04-19T22:36:17.302Z,6.5
2023-04-19T22:41:18.303Z,6.4375
2023-04-19T22:46:19.356Z,6.5
2023-04-19T22:51:20.125Z,6.5625
2023-04-19T22:56:20.922Z,6.5
2023-04-19T23:01:21.989Z,6.5625
2023-04-19T23:06:22.858Z,6.5625
2023-04-19T23:11:24.501Z,6.5625
2023-04-19T23:16:24.912Z,6.5
2023-04-19T23:21:25.868Z,6.4375
2023-04-19T23:26:26.861Z,6.4375
2023-04-19T23:31:27.663Z,6.4375
2023-04-19T23:36:28.669Z,6.4375
2023-04-19T23:41:29.629Z,6.5625
2023-04-19T23:46:30.455Z,6.5
2023-04-19T23:51:31.462Z,6.5
2023-04-19T23:56:32.483Z,6.5
